sensor_id;sensor_type;location;lat;lon;timestamp;P1;durP1;ratioP1;P2;durP2;ratioP2
11531;SDS011;5822;51.000;5.874;2022-11-21T00:00:16;18.63;;;17.10;;
11531;SDS011;5822;51.000;5.874;2022-11-21T00:02:43;18.33;;;16.73;;
11531;SDS011;5822;51.000;5.874;2022-11-21T00:05:08;18.33;;;16.83;;
11531;SDS011;5822;51.000;5.874;2022-11-21T00:07:34;18.00;;;16.50;;
11531;SDS011;5822;51.000;5.874;2022-11-21T00:10:00;18.13;;;16.60;;
11531;SDS011;5822;51.000;5.874;2022-11-21T00:12:25;25.80;;;23.80;;
11531;SDS011;5822;51.000;5.874;2022-11-21T00:14:54;20.47;;;18.97;;
11531;SDS011;5822;51.000;5.874;2022-11-21T00:17:20;20.90;;;19.23;;
11531;SDS011;5822;51.000;5.874;2022-11-21T00:19:45;19.10;;;17.37;;
11531;SDS011;5822;51.000;5.874;2022-11-21T00:22:11;18.83;;;17.23;;
11531;SDS011;5822;51.000;5.874;2022-11-21T00:24:37;19.17;;;17.40;;
11531;SDS011;5822;51.000;5.874;2022-11-21T00:27:02;19.13;;;17.43;;
11531;SDS011;5822;51.000;5.874;2022-11-21T00:29:28;19.00;;;17.30;;
11531;SDS011;5822;51.000;5.874;2022-11-21T00:31:53;18.30;;;16.80;;
11531;SDS011;5822;51.000;5.874;2022-11-21T00:34:19;16.93;;;15.83;;
11531;SDS011;5822;51.000;5.874;2022-11-21T00:36:47;17.38;;;16.13;;
11531;SDS011;5822;51.000;5.874;2022-11-21T00:39:13;17.60;;;16.40;;
11531;SDS011;5822;51.000;5.874;2022-11-21T00:41:39;18.83;;;17.52;;
11531;SDS011;5822;51.000;5.874;2022-11-21T00:44:04;17.17;;;15.95;;
11531;SDS011;5822;51.000;5.874;2022-11-21T00:46:30;16.98;;;15.80;;
11531;SDS011;5822;51.000;5.874;2022-11-21T00:48:56;17.45;;;16.13;;
11531;SDS011;5822;51.000;5.874;2022-11-21T00:51:21;17.90;;;16.50;;
11531;SDS011;5822;51.000;5.874;2022-11-21T00:53:47;18.37;;;16.77;;
11531;SDS011;5822;51.000;5.874;2022-11-21T00:56:13;18.17;;;16.77;;
11531;SDS011;5822;51.000;5.874;2022-11-21T00:58:38;17.73;;;16.40;;
11531;SDS011;5822;51.000;5.874;2022-11-21T01:01:13;17.03;;;15.73;;
11531;SDS011;5822;51.000;5.874;2022-11-21T01:03:39;18.40;;;17.13;;
11531;SDS011;5822;51.000;5.874;2022-11-21T01:06:09;19.17;;;17.67;;
11531;SDS011;5822;51.000;5.874;2022-11-21T01:08:37;17.70;;;16.30;;
11531;SDS011;5822;51.000;5.874;2022-11-21T01:11:05;17.58;;;16.27;;
11531;SDS011;5822;51.000;5.874;2022-11-21T01:13:38;17.65;;;16.35;;
11531;SDS011;5822;51.000;5.874;2022-11-21T01:16:06;18.20;;;16.80;;
11531;SDS011;5822;51.000;5.874;2022-11-21T01:18:33;18.60;;;17.23;;
11531;SDS011;5822;51.000;5.874;2022-11-21T01:21:03;17.10;;;15.90;;
11531;SDS011;5822;51.000;5.874;2022-11-21T01:23:30;17.35;;;16.02;;
11531;SDS011;5822;51.000;5.874;2022-11-21T01:26:00;17.48;;;16.10;;
11531;SDS011;5822;51.000;5.874;2022-11-21T01:28:27;17.83;;;16.52;;
11531;SDS011;5822;51.000;5.874;2022-11-21T01:30:52;19.67;;;18.27;;
11531;SDS011;5822;51.000;5.874;2022-11-21T01:33:18;17.17;;;15.90;;
11531;SDS011;5822;51.000;5.874;2022-11-21T01:35:43;17.27;;;15.98;;
11531;SDS011;5822;51.000;5.874;2022-11-21T01:38:09;17.52;;;16.23;;
11531;SDS011;5822;51.000;5.874;2022-11-21T01:40:38;17.00;;;15.80;;
11531;SDS011;5822;51.000;5.874;2022-11-21T01:43:11;18.45;;;17.05;;
11531;SDS011;5822;51.000;5.874;2022-11-21T01:46:13;17.90;;;16.50;;
11531;SDS011;5822;51.000;5.874;2022-11-21T01:48:39;17.38;;;16.17;;
11531;SDS011;5822;51.000;5.874;2022-11-21T01:53:47;17.58;;;16.20;;
11531;SDS011;5822;51.000;5.874;2022-11-21T01:56:41;18.53;;;17.13;;
11531;SDS011;5822;51.000;5.874;2022-11-21T01:59:17;17.17;;;15.93;;
11531;SDS011;5822;51.000;5.874;2022-11-21T02:01:49;17.05;;;15.80;;
11531;SDS011;5822;51.000;5.874;2022-11-21T02:04:16;16.90;;;15.70;;
11531;SDS011;5822;51.000;5.874;2022-11-21T02:06:42;18.38;;;17.08;;
11531;SDS011;5822;51.000;5.874;2022-11-21T02:09:08;17.33;;;16.13;;
11531;SDS011;5822;51.000;5.874;2022-11-21T02:11:36;17.20;;;16.10;;
11531;SDS011;5822;51.000;5.874;2022-11-21T02:14:05;17.50;;;16.30;;
11531;SDS011;5822;51.000;5.874;2022-11-21T02:16:31;17.15;;;16.05;;
11531;SDS011;5822;51.000;5.874;2022-11-21T02:18:58;17.45;;;16.25;;
11531;SDS011;5822;51.000;5.874;2022-11-21T02:24:32;16.63;;;15.52;;
11531;SDS011;5822;51.000;5.874;2022-11-21T02:27:02;17.10;;;15.90;;
11531;SDS011;5822;51.000;5.874;2022-11-21T02:29:28;16.92;;;15.82;;
11531;SDS011;5822;51.000;5.874;2022-11-21T02:31:57;18.42;;;17.13;;
11531;SDS011;5822;51.000;5.874;2022-11-21T02:34:26;17.27;;;16.08;;
11531;SDS011;5822;51.000;5.874;2022-11-21T02:36:52;16.90;;;15.70;;
11531;SDS011;5822;51.000;5.874;2022-11-21T02:39:19;17.15;;;16.00;;
11531;SDS011;5822;51.000;5.874;2022-11-21T02:42:27;17.10;;;15.90;;
11531;SDS011;5822;51.000;5.874;2022-11-21T02:44:52;17.50;;;16.23;;
11531;SDS011;5822;51.000;5.874;2022-11-21T02:47:29;16.85;;;15.65;;
11531;SDS011;5822;51.000;5.874;2022-11-21T02:50:12;16.83;;;15.63;;
11531;SDS011;5822;51.000;5.874;2022-11-21T02:52:40;17.23;;;15.93;;
11531;SDS011;5822;51.000;5.874;2022-11-21T02:55:06;18.40;;;17.20;;
11531;SDS011;5822;51.000;5.874;2022-11-21T02:57:32;17.67;;;16.40;;
11531;SDS011;5822;51.000;5.874;2022-11-21T02:59:58;16.70;;;15.60;;
11531;SDS011;5822;51.000;5.874;2022-11-21T03:02:23;17.10;;;15.90;;
11531;SDS011;5822;51.000;5.874;2022-11-21T03:04:49;16.70;;;15.60;;
11531;SDS011;5822;51.000;5.874;2022-11-21T03:07:15;17.70;;;16.60;;
11531;SDS011;5822;51.000;5.874;2022-11-21T03:09:41;16.50;;;15.40;;
11531;SDS011;5822;51.000;5.874;2022-11-21T03:12:07;16.50;;;15.47;;
11531;SDS011;5822;51.000;5.874;2022-11-21T03:14:34;16.38;;;15.27;;
11531;SDS011;5822;51.000;5.874;2022-11-21T03:17:00;17.15;;;15.95;;
11531;SDS011;5822;51.000;5.874;2022-11-21T03:19:27;17.70;;;16.60;;
11531;SDS011;5822;51.000;5.874;2022-11-21T03:21:52;16.70;;;15.60;;
11531;SDS011;5822;51.000;5.874;2022-11-21T03:24:20;16.70;;;15.60;;
11531;SDS011;5822;51.000;5.874;2022-11-21T03:26:46;17.17;;;15.98;;
11531;SDS011;5822;51.000;5.874;2022-11-21T03:29:11;16.73;;;15.63;;
11531;SDS011;5822;51.000;5.874;2022-11-21T03:31:37;17.50;;;16.40;;
11531;SDS011;5822;51.000;5.874;2022-11-21T03:34:03;15.80;;;14.90;;
11531;SDS011;5822;51.000;5.874;2022-11-21T03:36:28;16.67;;;15.47;;
11531;SDS011;5822;51.000;5.874;2022-11-21T03:38:54;16.37;;;15.23;;
11531;SDS011;5822;51.000;5.874;2022-11-21T03:41:21;16.20;;;15.20;;
11531;SDS011;5822;51.000;5.874;2022-11-21T03:46:30;17.05;;;15.85;;
11531;SDS011;5822;51.000;5.874;2022-11-21T03:48:57;16.25;;;15.15;;
11531;SDS011;5822;51.000;5.874;2022-11-21T03:51:23;16.02;;;15.02;;
11531;SDS011;5822;51.000;5.874;2022-11-21T03:53:49;17.50;;;16.40;;
11531;SDS011;5822;51.000;5.874;2022-11-21T03:56:15;17.85;;;16.70;;
11531;SDS011;5822;51.000;5.874;2022-11-21T03:58:41;16.45;;;15.40;;
11531;SDS011;5822;51.000;5.874;2022-11-21T04:01:07;16.13;;;15.10;;
11531;SDS011;5822;51.000;5.874;2022-11-21T04:03:33;17.13;;;15.93;;
11531;SDS011;5822;51.000;5.874;2022-11-21T04:05:59;17.25;;;16.05;;
11531;SDS011;5822;51.000;5.874;2022-11-21T04:08:25;18.52;;;17.33;;
11531;SDS011;5822;51.000;5.874;2022-11-21T04:10:51;16.73;;;15.65;;
11531;SDS011;5822;51.000;5.874;2022-11-21T04:13:18;16.17;;;15.18;;
11531;SDS011;5822;51.000;5.874;2022-11-21T04:15:45;16.75;;;15.65;;
11531;SDS011;5822;51.000;5.874;2022-11-21T04:18:11;17.40;;;16.23;;
11531;SDS011;5822;51.000;5.874;2022-11-21T04:20:37;16.77;;;15.77;;
11531;SDS011;5822;51.000;5.874;2022-11-21T04:23:03;16.75;;;15.57;;
11531;SDS011;5822;51.000;5.874;2022-11-21T04:25:29;16.30;;;15.20;;
11531;SDS011;5822;51.000;5.874;2022-11-21T04:27:59;16.50;;;15.43;;
11531;SDS011;5822;51.000;5.874;2022-11-21T04:30:26;16.60;;;15.60;;
11531;SDS011;5822;51.000;5.874;2022-11-21T04:32:52;16.93;;;15.93;;
11531;SDS011;5822;51.000;5.874;2022-11-21T04:35:19;16.45;;;15.35;;
11531;SDS011;5822;51.000;5.874;2022-11-21T04:37:45;16.77;;;15.68;;
11531;SDS011;5822;51.000;5.874;2022-11-21T04:40:11;16.40;;;15.30;;
11531;SDS011;5822;51.000;5.874;2022-11-21T04:42:45;17.93;;;16.83;;
11531;SDS011;5822;51.000;5.874;2022-11-21T04:45:12;16.48;;;15.38;;
11531;SDS011;5822;51.000;5.874;2022-11-21T04:47:40;16.30;;;15.30;;
11531;SDS011;5822;51.000;5.874;2022-11-21T04:50:08;16.77;;;15.68;;
11531;SDS011;5822;51.000;5.874;2022-11-21T04:52:34;16.83;;;15.73;;
11531;SDS011;5822;51.000;5.874;2022-11-21T04:55:00;17.67;;;16.58;;
11531;SDS011;5822;51.000;5.874;2022-11-21T04:57:27;16.77;;;15.68;;
11531;SDS011;5822;51.000;5.874;2022-11-21T04:59:53;16.92;;;15.82;;
11531;SDS011;5822;51.000;5.874;2022-11-21T05:02:19;16.30;;;15.30;;
11531;SDS011;5822;51.000;5.874;2022-11-21T05:04:45;17.05;;;15.95;;
11531;SDS011;5822;51.000;5.874;2022-11-21T05:07:11;18.23;;;17.13;;
11531;SDS011;5822;51.000;5.874;2022-11-21T05:09:37;17.88;;;16.75;;
11531;SDS011;5822;51.000;5.874;2022-11-21T05:12:03;19.02;;;17.92;;
11531;SDS011;5822;51.000;5.874;2022-11-21T05:14:47;20.92;;;19.63;;
11531;SDS011;5822;51.000;5.874;2022-11-21T05:17:13;21.37;;;20.07;;
11531;SDS011;5822;51.000;5.874;2022-11-21T05:19:38;20.30;;;19.00;;
11531;SDS011;5822;51.000;5.874;2022-11-21T05:22:04;20.80;;;19.50;;
11531;SDS011;5822;51.000;5.874;2022-11-21T05:24:29;17.30;;;16.20;;
11531;SDS011;5822;51.000;5.874;2022-11-21T05:26:55;16.70;;;15.50;;
11531;SDS011;5822;51.000;5.874;2022-11-21T05:29:21;16.48;;;15.38;;
11531;SDS011;5822;51.000;5.874;2022-11-21T05:31:46;18.13;;;16.83;;
11531;SDS011;5822;51.000;5.874;2022-11-21T05:34:12;19.70;;;18.50;;
11531;SDS011;5822;51.000;5.874;2022-11-21T05:36:37;20.35;;;19.13;;
11531;SDS011;5822;51.000;5.874;2022-11-21T05:39:03;19.60;;;18.40;;
11531;SDS011;5822;51.000;5.874;2022-11-21T05:41:29;21.08;;;19.67;;
11531;SDS011;5822;51.000;5.874;2022-11-21T05:43:55;20.90;;;19.70;;
11531;SDS011;5822;51.000;5.874;2022-11-21T05:46:22;21.65;;;20.25;;
11531;SDS011;5822;51.000;5.874;2022-11-21T05:48:49;17.95;;;16.67;;
11531;SDS011;5822;51.000;5.874;2022-11-21T05:51:16;16.88;;;15.68;;
11531;SDS011;5822;51.000;5.874;2022-11-21T05:53:43;16.55;;;15.45;;
11531;SDS011;5822;51.000;5.874;2022-11-21T05:56:10;19.57;;;18.20;;
11531;SDS011;5822;51.000;5.874;2022-11-21T05:58:37;24.27;;;22.75;;
11531;SDS011;5822;51.000;5.874;2022-11-21T06:01:03;24.15;;;22.60;;
11531;SDS011;5822;51.000;5.874;2022-11-21T06:03:31;28.80;;;27.07;;
11531;SDS011;5822;51.000;5.874;2022-11-21T06:08:25;25.87;;;24.27;;
11531;SDS011;5822;51.000;5.874;2022-11-21T06:10:51;27.58;;;25.98;;
11531;SDS011;5822;51.000;5.874;2022-11-21T06:13:17;25.23;;;23.73;;
11531;SDS011;5822;51.000;5.874;2022-11-21T06:15:49;17.80;;;16.60;;
11531;SDS011;5822;51.000;5.874;2022-11-21T06:18:17;18.67;;;17.38;;
11531;SDS011;5822;51.000;5.874;2022-11-21T06:20:42;18.40;;;17.10;;
11531;SDS011;5822;51.000;5.874;2022-11-21T06:23:09;20.73;;;19.33;;
11531;SDS011;5822;51.000;5.874;2022-11-21T06:25:35;20.30;;;19.00;;
11531;SDS011;5822;51.000;5.874;2022-11-21T06:28:01;23.13;;;21.63;;
11531;SDS011;5822;51.000;5.874;2022-11-21T06:30:26;24.73;;;23.13;;
11531;SDS011;5822;51.000;5.874;2022-11-21T06:32:52;24.07;;;22.47;;
11531;SDS011;5822;51.000;5.874;2022-11-21T06:35:17;24.93;;;23.33;;
11531;SDS011;5822;51.000;5.874;2022-11-21T06:37:43;25.43;;;23.83;;
11531;SDS011;5822;51.000;5.874;2022-11-21T06:40:09;19.33;;;17.93;;
11531;SDS011;5822;51.000;5.874;2022-11-21T06:42:35;19.20;;;17.80;;
11531;SDS011;5822;51.000;5.874;2022-11-21T06:45:01;19.40;;;18.00;;
11531;SDS011;5822;51.000;5.874;2022-11-21T06:47:28;20.50;;;19.10;;
11531;SDS011;5822;51.000;5.874;2022-11-21T06:49:57;21.30;;;19.90;;
11531;SDS011;5822;51.000;5.874;2022-11-21T06:52:22;22.40;;;21.00;;
11531;SDS011;5822;51.000;5.874;2022-11-21T06:54:48;23.63;;;22.13;;
11531;SDS011;5822;51.000;5.874;2022-11-21T06:57:14;24.63;;;23.03;;
11531;SDS011;5822;51.000;5.874;2022-11-21T06:59:39;25.10;;;23.30;;
11531;SDS011;5822;51.000;5.874;2022-11-21T07:02:05;25.90;;;24.20;;
11531;SDS011;5822;51.000;5.874;2022-11-21T07:04:30;19.20;;;17.83;;
11531;SDS011;5822;51.000;5.874;2022-11-21T07:06:56;18.75;;;17.38;;
11531;SDS011;5822;51.000;5.874;2022-11-21T07:09:22;18.85;;;17.45;;
11531;SDS011;5822;51.000;5.874;2022-11-21T07:11:47;22.55;;;20.95;;
11531;SDS011;5822;51.000;5.874;2022-11-21T07:14:13;23.27;;;21.67;;
11531;SDS011;5822;51.000;5.874;2022-11-21T07:16:38;22.65;;;21.15;;
11531;SDS011;5822;51.000;5.874;2022-11-21T07:19:04;23.77;;;22.27;;
11531;SDS011;5822;51.000;5.874;2022-11-21T07:21:30;25.58;;;24.05;;
11531;SDS011;5822;51.000;5.874;2022-11-21T07:23:56;25.00;;;23.40;;
11531;SDS011;5822;51.000;5.874;2022-11-21T07:26:21;24.10;;;22.50;;
11531;SDS011;5822;51.000;5.874;2022-11-21T07:28:47;19.83;;;18.33;;
11531;SDS011;5822;51.000;5.874;2022-11-21T07:31:13;19.10;;;17.50;;
11531;SDS011;5822;51.000;5.874;2022-11-21T07:33:38;19.35;;;17.85;;
11531;SDS011;5822;51.000;5.874;2022-11-21T07:36:04;20.70;;;19.20;;
11531;SDS011;5822;51.000;5.874;2022-11-21T07:38:30;21.63;;;20.02;;
11531;SDS011;5822;51.000;5.874;2022-11-21T07:40:55;22.20;;;20.70;;
11531;SDS011;5822;51.000;5.874;2022-11-21T07:43:21;22.27;;;20.67;;
11531;SDS011;5822;51.000;5.874;2022-11-21T07:45:47;22.85;;;21.25;;
11531;SDS011;5822;51.000;5.874;2022-11-21T07:48:12;23.90;;;22.30;;
11531;SDS011;5822;51.000;5.874;2022-11-21T07:50:38;21.38;;;19.92;;
11531;SDS011;5822;51.000;5.874;2022-11-21T07:53:05;17.45;;;16.25;;
11531;SDS011;5822;51.000;5.874;2022-11-21T07:55:32;18.10;;;16.70;;
11531;SDS011;5822;51.000;5.874;2022-11-21T07:57:58;18.20;;;16.90;;
11531;SDS011;5822;51.000;5.874;2022-11-21T08:00:24;19.50;;;18.20;;
11531;SDS011;5822;51.000;5.874;2022-11-21T08:02:58;19.50;;;18.10;;
11531;SDS011;5822;51.000;5.874;2022-11-21T08:05:24;20.20;;;18.90;;
11531;SDS011;5822;51.000;5.874;2022-11-21T08:07:50;22.63;;;21.23;;
11531;SDS011;5822;51.000;5.874;2022-11-21T08:10:15;21.37;;;19.97;;
11531;SDS011;5822;51.000;5.874;2022-11-21T08:12:41;20.63;;;19.33;;
11531;SDS011;5822;51.000;5.874;2022-11-21T08:15:08;17.48;;;16.27;;
11531;SDS011;5822;51.000;5.874;2022-11-21T08:17:34;17.52;;;16.23;;
11531;SDS011;5822;51.000;5.874;2022-11-21T08:19:59;17.23;;;15.93;;
11531;SDS011;5822;51.000;5.874;2022-11-21T08:22:26;17.95;;;16.63;;
11531;SDS011;5822;51.000;5.874;2022-11-21T08:24:51;18.73;;;17.43;;
11531;SDS011;5822;51.000;5.874;2022-11-21T08:27:20;19.58;;;18.27;;
11531;SDS011;5822;51.000;5.874;2022-11-21T08:29:47;20.67;;;19.27;;
11531;SDS011;5822;51.000;5.874;2022-11-21T08:32:13;20.97;;;19.47;;
11531;SDS011;5822;51.000;5.874;2022-11-21T08:34:38;21.45;;;19.95;;
11531;SDS011;5822;51.000;5.874;2022-11-21T08:37:07;23.25;;;21.65;;
11531;SDS011;5822;51.000;5.874;2022-11-21T08:39:33;18.33;;;17.02;;
11531;SDS011;5822;51.000;5.874;2022-11-21T08:41:58;18.65;;;17.25;;
11531;SDS011;5822;51.000;5.874;2022-11-21T08:44:30;18.67;;;17.23;;
11531;SDS011;5822;51.000;5.874;2022-11-21T08:46:57;19.15;;;17.75;;
11531;SDS011;5822;51.000;5.874;2022-11-21T08:49:23;18.80;;;17.50;;
11531;SDS011;5822;51.000;5.874;2022-11-21T08:51:49;19.40;;;18.10;;
11531;SDS011;5822;51.000;5.874;2022-11-21T08:54:15;19.73;;;18.52;;
11531;SDS011;5822;51.000;5.874;2022-11-21T08:56:42;20.70;;;19.30;;
11531;SDS011;5822;51.000;5.874;2022-11-21T08:59:08;22.02;;;20.42;;
11531;SDS011;5822;51.000;5.874;2022-11-21T09:01:34;21.67;;;20.27;;
11531;SDS011;5822;51.000;5.874;2022-11-21T09:03:59;17.90;;;16.60;;
11531;SDS011;5822;51.000;5.874;2022-11-21T09:06:25;16.97;;;15.77;;
11531;SDS011;5822;51.000;5.874;2022-11-21T09:08:51;17.30;;;16.10;;
11531;SDS011;5822;51.000;5.874;2022-11-21T09:11:17;17.70;;;16.60;;
11531;SDS011;5822;51.000;5.874;2022-11-21T09:13:43;18.58;;;17.38;;
11531;SDS011;5822;51.000;5.874;2022-11-21T09:16:28;18.98;;;17.67;;
11531;SDS011;5822;51.000;5.874;2022-11-21T09:19:12;19.73;;;18.42;;
11531;SDS011;5822;51.000;5.874;2022-11-21T09:21:38;19.33;;;18.13;;
11531;SDS011;5822;51.000;5.874;2022-11-21T09:24:03;20.02;;;18.73;;
11531;SDS011;5822;51.000;5.874;2022-11-21T09:26:29;17.38;;;16.17;;
11531;SDS011;5822;51.000;5.874;2022-11-21T09:28:55;17.30;;;16.10;;
11531;SDS011;5822;51.000;5.874;2022-11-21T09:31:21;16.50;;;15.38;;
11531;SDS011;5822;51.000;5.874;2022-11-21T09:33:47;17.30;;;16.30;;
11531;SDS011;5822;51.000;5.874;2022-11-21T09:36:12;18.23;;;17.10;;
11531;SDS011;5822;51.000;5.874;2022-11-21T09:38:38;19.20;;;17.90;;
11531;SDS011;5822;51.000;5.874;2022-11-21T09:46:34;17.05;;;15.88;;
11531;SDS011;5822;51.000;5.874;2022-11-21T09:49:09;16.80;;;15.70;;
11531;SDS011;5822;51.000;5.874;2022-11-21T09:51:36;17.00;;;15.80;;
11531;SDS011;5822;51.000;5.874;2022-11-21T09:54:12;17.98;;;16.88;;
11531;SDS011;5822;51.000;5.874;2022-11-21T09:56:42;17.88;;;16.77;;
11531;SDS011;5822;51.000;5.874;2022-11-21T10:01:55;20.20;;;18.85;;
11531;SDS011;5822;51.000;5.874;2022-11-21T10:04:21;20.47;;;19.07;;
11531;SDS011;5822;51.000;5.874;2022-11-21T10:07:00;17.00;;;15.80;;
11531;SDS011;5822;51.000;5.874;2022-11-21T10:09:55;17.15;;;15.95;;
11531;SDS011;5822;51.000;5.874;2022-11-21T10:18:39;18.98;;;17.88;;
11531;SDS011;5822;51.000;5.874;2022-11-21T10:21:32;16.60;;;15.50;;
11531;SDS011;5822;51.000;5.874;2022-11-21T10:27:05;16.20;;;15.10;;
11531;SDS011;5822;51.000;5.874;2022-11-21T10:29:40;18.60;;;17.30;;
11531;SDS011;5822;51.000;5.874;2022-11-21T10:32:24;18.77;;;17.58;;
11531;SDS011;5822;51.000;5.874;2022-11-21T10:34:55;20.38;;;19.08;;
11531;SDS011;5822;51.000;5.874;2022-11-21T10:37:29;20.30;;;19.00;;
11531;SDS011;5822;51.000;5.874;2022-11-21T10:40:02;17.17;;;15.98;;
11531;SDS011;5822;51.000;5.874;2022-11-21T10:42:45;16.17;;;15.07;;
11531;SDS011;5822;51.000;5.874;2022-11-21T10:45:46;17.27;;;15.98;;
11531;SDS011;5822;51.000;5.874;2022-11-21T10:48:13;18.13;;;16.92;;
11531;SDS011;5822;51.000;5.874;2022-11-21T10:53:17;20.33;;;18.92;;
11531;SDS011;5822;51.000;5.874;2022-11-21T10:56:13;17.17;;;15.98;;
11531;SDS011;5822;51.000;5.874;2022-11-21T10:58:46;16.85;;;15.65;;
11531;SDS011;5822;51.000;5.874;2022-11-21T11:01:26;16.75;;;15.55;;
11531;SDS011;5822;51.000;5.874;2022-11-21T11:06:41;18.10;;;17.00;;
11531;SDS011;5822;51.000;5.874;2022-11-21T11:15:25;17.30;;;16.00;;
11531;SDS011;5822;51.000;5.874;2022-11-21T11:17:58;16.98;;;15.88;;
11531;SDS011;5822;51.000;5.874;2022-11-21T11:22:58;18.35;;;17.25;;
11531;SDS011;5822;51.000;5.874;2022-11-21T11:25:23;21.02;;;19.80;;
11531;SDS011;5822;51.000;5.874;2022-11-21T11:27:49;15.93;;;14.93;;
11531;SDS011;5822;51.000;5.874;2022-11-21T11:30:15;16.00;;;15.00;;
11531;SDS011;5822;51.000;5.874;2022-11-21T11:32:42;16.70;;;15.60;;
11531;SDS011;5822;51.000;5.874;2022-11-21T11:37:37;19.20;;;17.90;;
11531;SDS011;5822;51.000;5.874;2022-11-21T11:42:48;19.73;;;18.42;;
11531;SDS011;5822;51.000;5.874;2022-11-21T11:46:03;17.00;;;15.90;;
11531;SDS011;5822;51.000;5.874;2022-11-21T11:48:49;17.20;;;16.10;;
11531;SDS011;5822;51.000;5.874;2022-11-21T11:51:21;17.92;;;16.83;;
11531;SDS011;5822;51.000;5.874;2022-11-21T11:53:52;18.90;;;17.70;;
11531;SDS011;5822;51.000;5.874;2022-11-21T11:56:27;20.90;;;19.65;;
11531;SDS011;5822;51.000;5.874;2022-11-21T11:59:36;17.10;;;15.90;;
11531;SDS011;5822;51.000;5.874;2022-11-21T12:02:20;17.17;;;16.05;;
11531;SDS011;5822;51.000;5.874;2022-11-21T12:05:03;18.20;;;17.00;;
11531;SDS011;5822;51.000;5.874;2022-11-21T12:07:39;19.10;;;17.90;;
11531;SDS011;5822;51.000;5.874;2022-11-21T12:10:21;21.17;;;19.87;;
11531;SDS011;5822;51.000;5.874;2022-11-21T12:12:58;17.58;;;16.38;;
11531;SDS011;5822;51.000;5.874;2022-11-21T12:15:39;17.20;;;16.00;;
11531;SDS011;5822;51.000;5.874;2022-11-21T12:23:56;19.50;;;18.30;;
11531;SDS011;5822;51.000;5.874;2022-11-21T12:34:33;15.67;;;14.60;;
11531;SDS011;5822;51.000;5.874;2022-11-21T12:45:23;16.30;;;15.20;;
11531;SDS011;5822;51.000;5.874;2022-11-21T12:51:12;16.25;;;15.15;;
11531;SDS011;5822;51.000;5.874;2022-11-21T12:57:12;16.30;;;15.20;;
11531;SDS011;5822;51.000;5.874;2022-11-21T13:02:46;15.82;;;14.80;;
11531;SDS011;5822;51.000;5.874;2022-11-21T13:05:23;16.15;;;15.05;;
11531;SDS011;5822;51.000;5.874;2022-11-21T13:08:07;16.55;;;15.45;;
11531;SDS011;5822;51.000;5.874;2022-11-21T13:10:37;16.02;;;15.00;;
11531;SDS011;5822;51.000;5.874;2022-11-21T13:15:55;15.57;;;14.57;;
11531;SDS011;5822;51.000;5.874;2022-11-21T13:18:27;15.93;;;14.93;;
11531;SDS011;5822;51.000;5.874;2022-11-21T13:20:56;16.33;;;15.23;;
11531;SDS011;5822;51.000;5.874;2022-11-21T13:29:35;16.00;;;14.90;;
11531;SDS011;5822;51.000;5.874;2022-11-21T13:31:37;15.70;;;14.70;;
11531;SDS011;5822;51.000;5.874;2022-11-21T13:34:08;15.20;;;14.30;;
11531;SDS011;5822;51.000;5.874;2022-11-21T13:36:56;15.40;;;14.50;;
11531;SDS011;5822;51.000;5.874;2022-11-21T13:39:29;15.70;;;14.60;;
11531;SDS011;5822;51.000;5.874;2022-11-21T13:44:44;16.17;;;15.07;;
11531;SDS011;5822;51.000;5.874;2022-11-21T13:47:11;15.90;;;14.80;;
11531;SDS011;5822;51.000;5.874;2022-11-21T13:50:07;16.50;;;15.30;;
11531;SDS011;5822;51.000;5.874;2022-11-21T13:55:18;16.10;;;14.90;;
11531;SDS011;5822;51.000;5.874;2022-11-21T13:58:18;15.85;;;14.75;;
11531;SDS011;5822;51.000;5.874;2022-11-21T14:03:36;16.20;;;15.00;;
11531;SDS011;5822;51.000;5.874;2022-11-21T14:06:36;16.50;;;15.40;;
11531;SDS011;5822;51.000;5.874;2022-11-21T14:09:05;15.95;;;14.85;;
11531;SDS011;5822;51.000;5.874;2022-11-21T14:11:57;16.10;;;15.00;;
11531;SDS011;5822;51.000;5.874;2022-11-21T14:17:03;15.80;;;14.70;;
11531;SDS011;5822;51.000;5.874;2022-11-21T14:19:53;16.00;;;15.00;;
11531;SDS011;5822;51.000;5.874;2022-11-21T14:25:06;16.02;;;14.93;;
11531;SDS011;5822;51.000;5.874;2022-11-21T14:27:36;16.10;;;15.00;;
11531;SDS011;5822;51.000;5.874;2022-11-21T14:30:03;15.43;;;14.40;;
11531;SDS011;5822;51.000;5.874;2022-11-21T14:32:30;16.27;;;15.07;;
11531;SDS011;5822;51.000;5.874;2022-11-21T14:37:54;16.38;;;15.20;;
11531;SDS011;5822;51.000;5.874;2022-11-21T14:40:21;16.00;;;14.90;;
11531;SDS011;5822;51.000;5.874;2022-11-21T14:42:48;16.15;;;15.05;;
11531;SDS011;5822;51.000;5.874;2022-11-21T14:49:20;16.05;;;14.90;;
11531;SDS011;5822;51.000;5.874;2022-11-21T14:55:20;15.48;;;14.43;;
11531;SDS011;5822;51.000;5.874;2022-11-21T14:58:16;15.73;;;14.63;;
11531;SDS011;5822;51.000;5.874;2022-11-21T15:01:06;15.60;;;14.50;;
11531;SDS011;5822;51.000;5.874;2022-11-21T15:03:52;15.90;;;14.80;;
11531;SDS011;5822;51.000;5.874;2022-11-21T15:06:20;16.20;;;15.10;;
11531;SDS011;5822;51.000;5.874;2022-11-21T15:08:45;15.87;;;14.87;;
11531;SDS011;5822;51.000;5.874;2022-11-21T15:11:11;15.87;;;14.77;;
11531;SDS011;5822;51.000;5.874;2022-11-21T15:13:40;17.08;;;15.80;;
11531;SDS011;5822;51.000;5.874;2022-11-21T15:16:08;16.50;;;15.30;;
11531;SDS011;5822;51.000;5.874;2022-11-21T15:18:34;15.50;;;14.50;;
11531;SDS011;5822;51.000;5.874;2022-11-21T15:21:02;15.43;;;14.43;;
11531;SDS011;5822;51.000;5.874;2022-11-21T15:23:29;15.55;;;14.55;;
11531;SDS011;5822;51.000;5.874;2022-11-21T15:26:00;15.13;;;14.13;;
11531;SDS011;5822;51.000;5.874;2022-11-21T15:28:26;15.45;;;14.45;;
11531;SDS011;5822;51.000;5.874;2022-11-21T15:33:58;15.73;;;14.73;;
11531;SDS011;5822;51.000;5.874;2022-11-21T15:36:24;15.52;;;14.50;;
11531;SDS011;5822;51.000;5.874;2022-11-21T15:44:34;15.27;;;14.27;;
11531;SDS011;5822;51.000;5.874;2022-11-21T15:46:45;16.00;;;14.90;;
11531;SDS011;5822;51.000;5.874;2022-11-21T15:49:14;15.60;;;14.60;;
11531;SDS011;5822;51.000;5.874;2022-11-21T15:51:42;15.57;;;14.57;;
11531;SDS011;5822;51.000;5.874;2022-11-21T15:54:11;15.82;;;14.73;;
11531;SDS011;5822;51.000;5.874;2022-11-21T15:56:38;16.20;;;15.10;;
11531;SDS011;5822;51.000;5.874;2022-11-21T15:59:05;16.52;;;15.32;;
11531;SDS011;5822;51.000;5.874;2022-11-21T16:01:31;15.80;;;14.77;;
11531;SDS011;5822;51.000;5.874;2022-11-21T16:03:58;15.27;;;14.27;;
11531;SDS011;5822;51.000;5.874;2022-11-21T16:06:25;15.55;;;14.55;;
11531;SDS011;5822;51.000;5.874;2022-11-21T16:08:51;15.25;;;14.32;;
11531;SDS011;5822;51.000;5.874;2022-11-21T16:11:22;15.70;;;14.70;;
11531;SDS011;5822;51.000;5.874;2022-11-21T16:13:51;16.00;;;14.90;;
11531;SDS011;5822;51.000;5.874;2022-11-21T16:16:18;15.32;;;14.43;;
11531;SDS011;5822;51.000;5.874;2022-11-21T16:18:45;15.40;;;14.40;;
11531;SDS011;5822;51.000;5.874;2022-11-21T16:21:11;15.73;;;14.68;;
11531;SDS011;5822;51.000;5.874;2022-11-21T16:23:38;15.90;;;14.80;;
11531;SDS011;5822;51.000;5.874;2022-11-21T16:26:04;15.27;;;14.27;;
11531;SDS011;5822;51.000;5.874;2022-11-21T16:28:31;15.50;;;14.50;;
11531;SDS011;5822;51.000;5.874;2022-11-21T16:30:57;15.90;;;14.80;;
11531;SDS011;5822;51.000;5.874;2022-11-21T16:33:24;15.40;;;14.40;;
11531;SDS011;5822;51.000;5.874;2022-11-21T16:35:50;15.00;;;14.10;;
11531;SDS011;5822;51.000;5.874;2022-11-21T16:38:19;15.50;;;14.50;;
11531;SDS011;5822;51.000;5.874;2022-11-21T16:41:06;15.88;;;14.77;;
11531;SDS011;5822;51.000;5.874;2022-11-21T16:43:32;15.63;;;14.52;;
11531;SDS011;5822;51.000;5.874;2022-11-21T16:46:04;15.37;;;14.43;;